Time;durP1;ratioP1;P1;durP2;ratioP2;P2;SDS_P1;SDS_P2;PMS_P1;PMS_P2;Temp;Humidity;BMP_temperature;BMP_pressure;BME280_temperature;BME280_humidity;BME280_pressure;Samples;Min_cycle;Max_cycle;Signal;HPM_P1;HPM_P2
2021/09/04 00:01:37;;;;;;;1.15;0.80;;;;;;;9.64;74.95;98043.38;5046092;28;20087;-48
2021/09/04 00:04:03;;;;;;;1.25;1.00;;;;;;;9.66;75.30;98046.72;5030681;28;20060;-45
2021/09/04 00:06:29;;;;;;;1.20;0.80;;;;;;;9.61;75.26;98057.38;5035159;28;20123;-45
2021/09/04 00:08:55;;;;;;;3.42;1.05;;;;;;;9.52;74.64;98055.28;5031565;28;20052;-47
2021/09/04 00:11:22;;;;;;;1.77;0.90;;;;;;;9.53;75.17;98064.72;5029829;28;20045;-47
2021/09/04 00:13:49;;;;;;;1.33;0.88;;;;;;;9.52;74.98;98055.28;5031563;28;20083;-49
2021/09/04 00:16:16;;;;;;;2.97;1.10;;;;;;;9.50;74.39;98069.25;5027972;28;20131;-47
2021/09/04 00:18:42;;;;;;;1.40;0.88;;;;;;;9.51;74.91;98063.16;5034897;28;20179;-48
2021/09/04 00:21:08;;;;;;;1.45;0.90;;;;;;;9.51;74.19;98078.72;5033199;28;20187;-47
2021/09/04 00:23:34;;;;;;;1.65;1.10;;;;;;;9.48;74.60;98068.50;5030237;28;20069;-48
2021/09/04 00:26:05;;;;;;;3.83;1.00;;;;;;;9.47;74.55;98072.03;5032274;28;20385;-49
2021/09/04 00:28:31;;;;;;;1.48;1.00;;;;;;;9.41;74.27;98077.56;5041155;28;20040;-47
2021/09/04 00:30:57;;;;;;;1.63;0.95;;;;;;;9.41;74.45;98075.81;5035610;28;20127;-49
2021/09/04 00:33:22;;;;;;;1.00;0.85;;;;;;;9.38;73.67;98075.13;5036544;28;20508;-48
2021/09/04 00:35:48;;;;;;;1.48;1.02;;;;;;;9.40;73.21;98073.28;5047898;28;20493;-48
2021/09/04 00:38:14;;;;;;;1.00;0.90;;;;;;;9.46;73.69;98083.31;5050718;28;20041;-50
2021/09/04 00:40:40;;;;;;;1.52;1.00;;;;;;;9.46;73.22;98080.72;5030855;28;20037;-50
2021/09/04 00:43:05;;;;;;;2.95;1.23;;;;;;;9.47;74.07;98088.44;5034194;28;20046;-47
2021/09/04 00:45:31;;;;;;;1.30;1.00;;;;;;;9.46;73.91;98094.53;5034260;28;20041;-47
2021/09/04 00:48:04;;;;;;;1.88;1.30;;;;;;;9.46;73.42;98096.28;5034807;28;20033;-47
2021/09/04 00:50:33;;;;;;;4.82;1.10;;;;;;;9.49;73.09;98093.53;5031256;28;20041;-49
2021/09/04 00:52:59;;;;;;;5.80;1.50;;;;;;;9.47;72.52;98096.22;5033790;28;20053;-47
2021/09/04 00:55:27;;;;;;;1.60;1.10;;;;;;;9.27;72.12;98092.09;5033857;28;20046;-49
2021/09/04 00:57:53;;;;;;;1.10;0.93;;;;;;;9.21;72.55;98102.00;5035966;28;20041;-50
2021/09/04 01:00:20;;;;;;;4.35;1.20;;;;;;;9.19;73.20;98077.88;5040242;28;20109;-46
2021/09/04 01:02:48;;;;;;;4.53;1.20;;;;;;;9.36;73.56;98106.34;5033356;28;20128;-50
2021/09/04 01:05:14;;;;;;;1.52;1.20;;;;;;;9.40;73.76;98110.44;5033617;28;20037;-47
2021/09/04 01:07:42;;;;;;;1.27;1.08;;;;;;;9.36;73.26;98101.16;5034704;28;20045;-53
2021/09/04 01:10:11;;;;;;;1.40;1.08;;;;;;;9.18;73.15;98115.09;5028071;28;20045;-47
2021/09/04 01:12:38;;;;;;;1.73;1.00;;;;;;;9.09;73.89;98111.25;5036160;28;20524;-47
2021/09/04 01:15:06;;;;;;;1.17;1.05;;;;;;;9.06;73.65;98113.16;5031766;28;20303;-46
2021/09/04 01:17:33;;;;;;;1.55;1.10;;;;;;;9.15;73.83;98110.94;5031765;28;20080;-47
2021/09/04 01:19:59;;;;;;;1.05;0.90;;;;;;;8.89;73.71;98075.19;5029695;28;20045;-49
2021/09/04 01:22:24;;;;;;;1.75;1.00;;;;;;;9.10;73.41;98112.09;5056055;28;20033;-48
2021/09/04 01:24:51;;;;;;;2.13;1.10;;;;;;;9.08;73.18;98111.34;5027176;28;20048;-50
2021/09/04 01:27:17;;;;;;;1.92;1.00;;;;;;;9.01;73.43;98123.78;5030737;28;20064;-48
2021/09/04 01:29:43;;;;;;;1.33;1.08;;;;;;;9.09;73.65;98121.63;5035154;28;20055;-46
2021/09/04 01:32:09;;;;;;;1.60;1.10;;;;;;;9.15;73.83;98126.50;5026833;28;20041;-48
2021/09/04 01:34:35;;;;;;;4.13;1.10;;;;;;;9.13;73.45;98117.94;5035367;28;20045;-50
2021/09/04 01:37:00;;;;;;;1.65;1.20;;;;;;;9.02;73.54;98134.97;5037337;28;20428;-50
2021/09/04 01:39:26;;;;;;;1.50;1.05;;;;;;;8.99;73.66;98135.16;5039610;28;20424;-47
2021/09/04 01:41:52;;;;;;;1.55;0.98;;;;;;;8.93;73.34;98126.78;5027218;28;20052;-46
2021/09/04 01:44:17;;;;;;;5.22;1.10;;;;;;;8.89;73.68;98134.81;5030730;28;20098;-46
2021/09/04 01:46:43;;;;;;;2.05;1.27;;;;;;;8.98;73.46;98136.06;5036710;28;20048;-45
2021/09/04 01:49:09;;;;;;;1.35;1.10;;;;;;;8.98;73.78;98125.69;5031240;28;20532;-46
2021/09/04 01:51:34;;;;;;;1.52;1.00;;;;;;;8.95;74.04;98128.47;5028545;28;20045;-48
2021/09/04 01:54:00;;;;;;;0.95;0.82;;;;;;;9.00;74.17;98129.91;5028505;28;20440;-47
2021/09/04 01:56:27;;;;;;;1.17;0.90;;;;;;;8.93;73.48;98115.56;5031482;28;20064;-46
2021/09/04 01:58:53;;;;;;;0.95;0.73;;;;;;;8.99;73.42;98136.00;5033423;28;20528;-45
2021/09/04 02:01:19;;;;;;;0.98;0.82;;;;;;;8.86;72.98;98140.97;5042198;28;20033;-45
2021/09/04 02:03:45;;;;;;;2.03;1.27;;;;;;;8.88;73.00;98135.72;5000536;28;20067;-48
2021/09/04 02:06:10;;;;;;;2.40;0.90;;;;;;;8.75;72.90;98114.78;5048521;28;20041;-46
2021/09/04 02:08:36;;;;;;;0.95;0.70;;;;;;;8.75;72.39;98137.25;5035727;28;20099;-46
2021/09/04 02:11:02;;;;;;;2.80;0.93;;;;;;;8.78;72.62;98139.69;5030199;28;20044;-47
2021/09/04 02:13:28;;;;;;;1.65;0.90;;;;;;;8.72;72.52;98146.03;5045821;28;20044;-47
2021/09/04 02:15:54;;;;;;;1.35;1.00;;;;;;;8.61;72.78;98119.84;5040896;28;20477;-47
2021/09/04 02:18:20;;;;;;;2.22;0.90;;;;;;;8.81;73.17;98149.91;5029724;28;20500;-47
2021/09/04 02:20:48;;;;;;;3.53;1.00;;;;;;;8.82;73.07;98136.88;5045064;28;20080;-47
2021/09/04 02:23:15;;;;;;;1.15;0.88;;;;;;;8.86;72.98;98146.16;5030805;28;20394;-47
2021/09/04 02:25:42;;;;;;;1.35;1.02;;;;;;;8.76;73.54;98128.56;5026109;28;20037;-46
2021/09/04 02:28:09;;;;;;;1.20;1.10;;;;;;;8.84;73.12;98142.81;5027394;28;20044;-49
2021/09/04 02:30:35;;;;;;;1.30;0.90;;;;;;;8.75;72.85;98145.88;5032426;28;20047;-47
2021/09/04 02:33:01;;;;;;;2.20;1.92;;;;;;;8.84;72.64;98152.34;5035151;28;20064;-48
2021/09/04 02:35:27;;;;;;;2.45;1.00;;;;;;;8.78;72.77;98158.69;5028998;28;20049;-48
2021/09/04 02:37:53;;;;;;;5.75;1.55;;;;;;;8.88;73.02;98154.69;5031321;28;20039;-48
2021/09/04 02:40:19;;;;;;;1.65;1.05;;;;;;;8.94;73.16;98161.31;5040541;28;20041;-48
2021/09/04 02:42:48;;;;;;;2.23;1.30;;;;;;;8.88;73.28;98146.06;5033212;28;20048;-51
2021/09/04 02:45:14;;;;;;;2.10;1.08;;;;;;;9.05;73.08;98171.97;5033062;28;20116;-49
2021/09/04 02:47:40;;;;;;;1.25;1.00;;;;;;;9.05;72.72;98168.53;5035673;28;20132;-48
2021/09/04 02:50:06;;;;;;;1.80;1.23;;;;;;;9.08;72.91;98176.97;5039495;28;20053;-47
2021/09/04 02:52:33;;;;;;;1.70;1.17;;;;;;;9.01;72.73;98154.03;5037542;28;20136;-46
2021/09/04 02:54:59;;;;;;;1.58;1.15;;;;;;;9.14;72.37;98179.25;5040020;28;20137;-48
2021/09/04 02:57:24;;;;;;;1.42;1.13;;;;;;;9.05;72.66;98177.16;5038877;28;20037;-46
2021/09/04 02:59:51;;;;;;;2.65;1.15;;;;;;;8.97;72.64;98170.66;5027032;28;20048;-47
2021/09/04 03:02:17;;;;;;;1.63;1.23;;;;;;;8.90;72.82;98173.56;5042862;28;20047;-47
2021/09/04 03:04:43;;;;;;;1.38;0.90;;;;;;;8.86;73.09;98169.47;5049525;28;20128;-45
2021/09/04 03:07:09;;;;;;;1.58;1.20;;;;;;;8.76;73.36;98172.63;5045681;28;20041;-49
2021/09/04 03:09:36;;;;;;;5.43;1.50;;;;;;;8.78;73.60;98174.22;5049547;28;20424;-45
2021/09/04 03:12:03;;;;;;;4.25;1.73;;;;;;;8.65;73.16;98136.88;5041174;28;20037;-46
2021/09/04 03:14:29;;;;;;;1.95;1.20;;;;;;;8.68;73.80;98175.63;5034110;28;20048;-46
2021/09/04 03:16:55;;;;;;;3.70;2.55;;;;;;;8.66;73.87;98177.44;5029806;28;20068;-49
2021/09/04 03:19:21;;;;;;;1.75;1.30;;;;;;;8.63;73.57;98185.38;5040475;28;20069;-50
2021/09/04 03:21:47;;;;;;;2.38;1.05;;;;;;;8.61;73.66;98189.78;5043234;28;20152;-47
2021/09/04 03:24:15;;;;;;;2.60;1.40;;;;;;;8.70;73.84;98189.31;5012294;28;20056;-53
2021/09/04 03:26:41;;;;;;;2.58;1.52;;;;;;;8.82;73.32;98190.44;5029118;28;20123;-48
2021/09/04 03:29:07;;;;;;;2.92;1.20;;;;;;;8.92;73.43;98194.22;5043667;28;20314;-45
2021/09/04 03:31:33;;;;;;;2.47;1.10;;;;;;;8.86;72.99;98199.72;5024247;28;20049;-48
2021/09/04 03:33:59;;;;;;;3.92;2.67;;;;;;;8.88;72.60;98190.13;5041226;28;20033;-46
2021/09/04 03:36:25;;;;;;;2.15;1.50;;;;;;;8.98;72.90;98206.88;5040628;28;20056;-46
2021/09/04 03:38:51;;;;;;;2.60;1.80;;;;;;;8.72;72.20;98168.50;5030712;28;20041;-46
2021/09/04 03:41:17;;;;;;;2.13;1.42;;;;;;;8.99;72.79;98203.38;5029429;28;20039;-48
2021/09/04 03:43:43;;;;;;;2.03;1.50;;;;;;;9.08;73.02;98215.84;5032498;28;20067;-48
2021/09/04 03:46:10;;;;;;;1.55;1.40;;;;;;;8.99;72.75;98218.09;5047578;28;20077;-46
2021/09/04 03:48:36;;;;;;;2.25;1.50;;;;;;;8.95;72.48;98216.59;5036474;28;20053;-47
2021/09/04 03:51:02;;;;;;;2.88;1.50;;;;;;;8.83;72.78;98194.72;5031558;28;20051;-48
2021/09/04 03:53:29;;;;;;;1.70;1.52;;;;;;;9.08;72.39;98223.63;5029784;28;20410;-46
2021/09/04 03:55:55;;;;;;;3.17;1.60;;;;;;;9.17;73.06;98225.75;5040231;28;20103;-46
2021/09/04 03:58:22;;;;;;;3.55;1.60;;;;;;;9.15;72.66;98213.78;5045520;28;20052;-45
2021/09/04 04:00:48;;;;;;;4.25;2.30;;;;;;;9.25;72.76;98228.78;5040600;28;20536;-48
2021/09/04 04:03:14;;;;;;;2.65;1.60;;;;;;;9.30;73.33;98223.38;5028935;28;20033;-48
2021/09/04 04:05:40;;;;;;;2.58;1.60;;;;;;;9.16;73.44;98236.22;5046646;28;20043;-46
2021/09/04 04:08:06;;;;;;;3.00;1.80;;;;;;;9.09;73.57;98237.44;5037858;28;20041;-49
2021/09/04 04:10:33;;;;;;;2.38;1.95;;;;;;;9.10;73.82;98241.72;5046194;28;20077;-50
2021/09/04 04:13:00;;;;;;;1.38;1.20;;;;;;;9.01;74.57;98235.22;5035768;28;20047;-46
2021/09/04 04:15:26;;;;;;;2.03;1.40;;;;;;;9.00;74.54;98236.16;5044745;28;20048;-47
2021/09/04 04:17:53;;;;;;;2.28;1.45;;;;;;;9.11;74.36;98241.63;5034249;28;20076;-48
2021/09/04 04:20:19;;;;;;;1.90;1.20;;;;;;;9.11;74.04;98235.59;5038048;28;20045;-47
2021/09/04 04:22:48;;;;;;;1.73;1.30;;;;;;;9.06;74.48;98243.59;5043557;28;20456;-47
2021/09/04 04:25:13;;;;;;;1.35;1.08;;;;;;;9.08;74.70;98243.53;5035610;28;20036;-46
2021/09/04 04:27:40;;;;;;;5.45;1.63;;;;;;;9.05;74.69;98246.28;5036812;28;20056;-47
2021/09/04 04:30:06;;;;;;;2.88;1.38;;;;;;;9.29;74.22;98251.03;5032013;28;20042;-46
2021/09/04 04:32:32;;;;;;;1.90;1.10;;;;;;;9.45;73.50;98255.44;5041358;28;20131;-47
2021/09/04 04:34:59;;;;;;;2.20;1.23;;;;;;;9.43;73.80;98260.69;5035972;28;20049;-48
2021/09/04 04:37:26;;;;;;;1.25;0.88;;;;;;;9.38;73.55;98257.50;5030063;28;20052;-48
2021/09/04 04:39:52;;;;;;;1.38;1.13;;;;;;;9.26;74.55;98264.16;5031423;28;20102;-48
2021/09/04 04:42:20;;;;;;;1.58;1.30;;;;;;;9.21;75.28;98263.56;5032503;28;20044;-47
2021/09/04 04:44:48;;;;;;;1.88;1.10;;;;;;;9.20;75.75;98269.69;5038988;28;20098;-47
2021/09/04 04:47:15;;;;;;;2.22;1.48;;;;;;;9.30;75.07;98265.69;5034399;28;20102;-47
2021/09/04 04:49:42;;;;;;;11.07;1.90;;;;;;;9.41;75.33;98280.69;5030570;28;20041;-47
2021/09/04 04:52:08;;;;;;;1.77;1.30;;;;;;;9.49;75.16;98280.28;5032770;28;20576;-46
2021/09/04 04:54:34;;;;;;;1.48;1.25;;;;;;;9.47;74.90;98282.97;5032820;28;20037;-46
2021/09/04 04:57:01;;;;;;;1.77;1.40;;;;;;;9.60;74.28;98284.00;5026798;28;20048;-46
2021/09/04 04:59:28;;;;;;;1.95;1.20;;;;;;;9.64;74.16;98279.47;5032600;28;20100;-48
2021/09/04 05:01:54;;;;;;;1.52;1.10;;;;;;;9.58;74.03;98278.03;5042710;28;20495;-49
2021/09/04 05:04:20;;;;;;;2.53;1.23;;;;;;;9.69;74.23;98287.84;5039960;28;20178;-48
2021/09/04 05:06:47;;;;;;;3.33;1.38;;;;;;;9.46;74.31;98272.69;5031964;28;20080;-48
2021/09/04 05:09:14;;;;;;;1.55;1.20;;;;;;;9.30;75.87;98301.16;5027989;28;20041;-47
2021/09/04 05:11:40;;;;;;;2.08;1.10;;;;;;;9.06;76.51;98276.47;5029922;28;20128;-47
2021/09/04 05:14:08;;;;;;;2.25;1.50;;;;;;;9.26;76.89;98300.47;5030846;28;20046;-47
2021/09/04 05:16:34;;;;;;;3.47;1.10;;;;;;;9.24;76.50;98285.91;5030448;28;20049;-47
2021/09/04 05:19:00;;;;;;;2.15;1.25;;;;;;;9.32;76.47;98294.13;5029619;28;20428;-46
2021/09/04 05:21:27;;;;;;;1.50;1.08;;;;;;;9.40;76.07;98302.38;5030089;28;20049;-50
2021/09/04 05:23:53;;;;;;;2.67;1.35;;;;;;;9.44;75.76;98290.91;5030393;28;20052;-50
2021/09/04 05:26:20;;;;;;;3.17;1.13;;;;;;;9.60;75.02;98307.34;5034186;28;20528;-49
2021/09/04 05:28:46;;;;;;;1.70;1.20;;;;;;;9.56;75.54;98315.38;5029889;28;20049;-52
2021/09/04 05:31:12;;;;;;;2.38;1.60;;;;;;;9.64;75.63;98310.63;5019401;28;20140;-46
2021/09/04 05:33:37;;;;;;;2.25;1.40;;;;;;;9.82;76.26;98314.84;5030075;28;20133;-49
2021/09/04 05:36:03;;;;;;;5.35;1.85;;;;;;;9.88;76.80;98314.53;5029866;28;20159;-47
2021/09/04 05:38:29;;;;;;;2.78;1.20;;;;;;;9.78;78.22;98289.97;5039616;28;20131;-47
2021/09/04 05:40:55;;;;;;;1.55;1.25;;;;;;;9.93;78.82;98316.88;5029961;28;20575;-49
2021/09/04 05:43:21;;;;;;;3.63;1.08;;;;;;;9.89;79.57;98307.59;5027796;28;20048;-46
2021/09/04 05:45:48;;;;;;;2.10;0.90;;;;;;;9.87;78.38;98322.38;5030235;28;20120;-46
2021/09/04 05:48:13;;;;;;;1.23;1.10;;;;;;;9.65;78.38;98305.34;5028619;28;20037;-48
2021/09/04 05:50:39;;;;;;;3.00;1.17;;;;;;;9.67;78.13;98332.06;5028142;28;20041;-50
2021/09/04 05:53:05;;;;;;;1.60;0.98;;;;;;;9.69;78.33;98334.56;5029499;28;20479;-51
2021/09/04 05:55:31;;;;;;;1.80;0.90;;;;;;;9.77;77.63;98338.44;5028819;28;20045;-48
2021/09/04 05:57:57;;;;;;;2.53;0.98;;;;;;;10.21;77.44;98343.03;5030317;28;20460;-47
2021/09/04 06:00:23;;;;;;;1.58;0.98;;;;;;;10.51;77.03;98343.16;5028237;28;20171;-46
2021/09/04 06:02:49;;;;;;;3.80;0.98;;;;;;;10.52;74.57;98337.03;5028152;28;20052;-46
2021/09/04 06:05:15;;;;;;;1.50;1.02;;;;;;;10.60;74.57;98342.63;5036904;28;20033;-47
2021/09/04 06:07:41;;;;;;;2.22;1.02;;;;;;;10.73;74.13;98335.78;5030507;28;20520;-47
2021/09/04 06:10:07;;;;;;;2.53;1.00;;;;;;;10.95;73.70;98341.47;5020125;28;20038;-45
2021/09/04 06:12:33;;;;;;;3.42;1.88;;;;;;;10.95;73.45;98344.06;5027590;28;20049;-47
2021/09/04 06:14:58;;;;;;;17.80;9.55;;;;;;;11.90;71.79;98341.91;5031602;28;20044;-47
2021/09/04 06:17:26;;;;;;;1.30;1.02;;;;;;;12.61;67.26;98337.41;5027692;28;20041;-47
2021/09/04 06:19:51;;;;;;;4.60;1.50;;;;;;;13.11;64.58;98344.59;5027294;28;20051;-49
2021/09/04 06:22:17;;;;;;;1.55;1.05;;;;;;;13.84;61.92;98330.97;5028050;28;20048;-47
2021/09/04 06:24:43;;;;;;;1.30;0.93;;;;;;;15.66;55.95;98315.00;5036010;28;20456;-48
2021/09/04 06:27:09;;;;;;;1.63;1.20;;;;;;;16.67;53.96;98342.84;5027699;28;20045;-49
2021/09/04 06:29:34;;;;;;;1.20;0.90;;;;;;;16.10;55.93;98348.25;5059163;28;20076;-51
2021/09/04 06:32:00;;;;;;;1.20;0.90;;;;;;;15.10;55.95;98330.56;5028767;28;20049;-50
2021/09/04 06:34:29;;;;;;;2.17;1.10;;;;;;;14.21;57.68;98348.38;5028526;28;20045;-49
2021/09/04 06:36:55;;;;;;;1.55;1.02;;;;;;;13.70;58.16;98346.75;5027149;28;20132;-49
2021/09/04 06:39:20;;;;;;;5.00;1.30;;;;;;;13.40;59.09;98334.81;5026332;28;20490;-47
2021/09/04 06:41:46;;;;;;;2.42;0.90;;;;;;;13.41;58.66;98352.16;5029735;28;20040;-46
2021/09/04 06:44:12;;;;;;;2.45;1.00;;;;;;;13.99;56.49;98343.78;5027315;28;20073;-45
2021/09/04 06:46:37;;;;;;;1.48;0.98;;;;;;;14.44;56.43;98340.72;5029181;28;20405;-50
2021/09/04 06:49:03;;;;;;;1.27;0.98;;;;;;;15.45;52.89;98345.41;5028767;28;20037;-49
2021/09/04 06:51:29;;;;;;;2.05;1.33;;;;;;;15.13;54.81;98343.41;5029246;28;20041;-47
2021/09/04 06:53:54;;;;;;;1.73;0.90;;;;;;;13.99;55.03;98348.19;5029397;28;20096;-47
2021/09/04 06:56:20;;;;;;;1.33;1.00;;;;;;;13.18;57.17;98346.81;5028022;28;20508;-46
2021/09/04 06:58:46;;;;;;;1.33;0.98;;;;;;;13.03;57.92;98354.66;5028598;28;20041;-46
2021/09/04 07:01:11;;;;;;;2.28;1.33;;;;;;;14.43;55.65;98329.41;5025880;28;20073;-48
2021/09/04 07:03:37;;;;;;;1.65;1.27;;;;;;;16.80;51.58;98350.56;5016200;28;20424;-54
2021/09/04 07:06:04;;;;;;;1.73;1.10;;;;;;;18.85;44.91;98339.06;5027900;28;20044;-52
2021/09/04 07:08:30;;;;;;;1.15;1.05;;;;;;;20.68;40.85;98320.13;5044201;28;20037;-47
2021/09/04 07:10:56;;;;;;;3.35;1.40;;;;;;;21.70;38.01;98337.22;5028583;28;20048;-49
2021/09/04 07:13:21;;;;;;;1.35;1.20;;;;;;;21.22;36.52;98336.88;5027817;28;20117;-49
2021/09/04 07:15:47;;;;;;;2.53;0.85;;;;;;;19.38;39.29;98343.91;5025150;28;20045;-51
2021/09/04 07:18:13;;;;;;;1.30;1.10;;;;;;;18.30;41.48;98339.63;5027079;28;20087;-46
2021/09/04 07:20:39;;;;;;;2.45;1.30;;;;;;;17.19;43.14;98344.66;5027781;28;20041;-51
2021/09/04 07:23:05;;;;;;;2.17;1.33;;;;;;;16.24;44.13;98344.53;5027542;28;20398;-47
2021/09/04 07:25:31;;;;;;;1.48;1.27;;;;;;;15.52;46.69;98339.63;5029010;28;20080;-48
2021/09/04 07:27:57;;;;;;;4.32;1.42;;;;;;;15.39;47.51;98344.06;5030163;28;20061;-47
2021/09/04 07:30:22;;;;;;;1.00;0.90;;;;;;;15.67;47.05;98348.94;5029249;28;20053;-51
2021/09/04 07:32:48;;;;;;;1.52;1.00;;;;;;;15.87;47.11;98351.81;5031307;28;20516;-51
2021/09/04 07:35:14;;;;;;;1.15;0.90;;;;;;;15.70;47.75;98353.13;5061998;28;20049;-45
2021/09/04 07:37:39;;;;;;;1.63;1.05;;;;;;;15.34;49.68;98364.53;5014456;28;20044;-46
2021/09/04 07:40:06;;;;;;;3.42;0.90;;;;;;;15.20;49.53;98359.50;5031883;28;20045;-48
2021/09/04 07:42:32;;;;;;;2.05;1.42;;;;;;;16.35;47.46;98362.88;5031132;28;20041;-47
2021/09/04 07:44:58;;;;;;;1.45;1.27;;;;;;;18.93;41.38;98367.38;5030346;28;20045;-50
2021/09/04 07:47:24;;;;;;;1.17;1.08;;;;;;;21.27;38.49;98355.75;5022261;28;20045;-48
2021/09/04 07:49:49;;;;;;;1.50;1.40;;;;;;;22.96;35.91;98369.13;5031518;28;20457;-46
2021/09/04 07:52:15;;;;;;;1.58;1.48;;;;;;;24.59;33.35;98369.78;5029760;28;20107;-49
2021/09/04 07:54:41;;;;;;;1.80;1.10;;;;;;;24.22;32.43;98373.91;5031786;28;20052;-49
2021/09/04 07:57:06;;;;;;;1.73;1.10;;;;;;;24.71;30.35;98371.03;5035023;28;20540;-48
2021/09/04 07:59:32;;;;;;;1.05;0.95;;;;;;;23.92;29.81;98377.25;5031307;28;20179;-47
2021/09/04 08:01:58;;;;;;;1.23;1.13;;;;;;;23.60;30.51;98368.34;5029926;28;20045;-53
2021/09/04 08:04:23;;;;;;;1.30;0.80;;;;;;;24.38;29.09;98373.03;5031288;28;20053;-56
2021/09/04 08:06:49;;;;;;;1.00;0.88;;;;;;;24.42;30.21;98377.81;5030864;28;20029;-56
2021/09/04 08:09:15;;;;;;;1.27;0.93;;;;;;;23.28;31.04;98367.50;5029829;28;20041;-55
2021/09/04 08:11:40;;;;;;;2.10;1.02;;;;;;;22.51;31.53;98366.78;5030837;28;20068;-56
2021/09/04 08:14:06;;;;;;;2.38;0.80;;;;;;;21.31;33.00;98371.13;5032738;28;20060;-58
2021/09/04 08:16:32;;;;;;;3.38;0.85;;;;;;;20.27;34.57;98366.31;5030072;28;20041;-57
2021/09/04 08:18:57;;;;;;;1.83;0.88;;;;;;;18.76;37.36;98376.75;5030233;28;20429;-56
2021/09/04 08:21:23;;;;;;;1.52;0.90;;;;;;;17.86;39.87;98369.75;5029424;28;20094;-58
2021/09/04 08:23:49;;;;;;;1.30;0.82;;;;;;;19.51;37.17;98377.94;5019178;28;20045;-55
2021/09/04 08:26:15;;;;;;;1.63;1.20;;;;;;;21.51;33.66;98371.81;5026789;28;20041;-56
2021/09/04 08:28:40;;;;;;;1.83;0.90;;;;;;;22.56;30.87;98368.97;5028633;28;20041;-56
2021/09/04 08:31:06;;;;;;;1.52;0.80;;;;;;;22.72;30.60;98369.03;5028974;28;20048;-57
2021/09/04 08:33:32;;;;;;;0.88;0.50;;;;;;;22.30;30.66;98380.44;5030891;28;20091;-53
2021/09/04 08:35:57;;;;;;;2.30;0.70;;;;;;;20.89;33.00;98385.88;5028642;28;20099;-56
2021/09/04 08:38:23;;;;;;;0.63;0.63;;;;;;;20.42;34.21;98386.03;5026910;28;20128;-58
2021/09/04 08:40:51;;;;;;;0.70;0.60;;;;;;;20.27;34.29;98387.44;5061365;28;20463;-55
2021/09/04 08:43:21;;;;;;;0.60;0.50;;;;;;;18.42;37.33;98380.66;5029420;28;20111;-54
2021/09/04 08:45:47;;;;;;;0.70;0.57;;;;;;;17.81;38.99;98385.91;5029230;28;20393;-56
2021/09/04 08:48:13;;;;;;;1.63;0.75;;;;;;;17.36;40.03;98385.31;5029632;28;20052;-56
2021/09/04 08:50:39;;;;;;;2.25;0.95;;;;;;;16.57;41.77;98396.97;5029668;28;20045;-55
2021/09/04 08:53:05;;;;;;;0.75;0.73;;;;;;;16.16;42.65;98375.78;5028431;28;20095;-60
2021/09/04 08:55:31;;;;;;;1.13;0.70;;;;;;;15.98;43.84;98399.00;4993252;28;20544;-58
2021/09/04 08:58:00;;;;;;;4.63;1.05;;;;;;;17.72;40.67;98405.94;5025813;28;20095;-55
2021/09/04 09:00:33;;;;;;;2.60;0.90;;;;;;;20.59;36.70;98408.19;5021884;28;20647;-57
2021/09/04 09:03:01;;;;;;;0.40;0.40;;;;;;;22.06;32.09;98411.25;5038180;28;20076;-58
2021/09/04 09:05:41;;;;;;;1.08;0.50;;;;;;;21.79;31.92;98412.19;5011179;28;20033;-57
2021/09/04 09:08:14;;;;;;;3.55;0.60;;;;;;;21.64;31.71;98411.91;5011210;28;20037;-55
2021/09/04 09:10:41;;;;;;;0.60;0.60;;;;;;;21.38;31.44;98401.28;5027871;28;20103;-56
2021/09/04 09:13:07;;;;;;;2.17;0.77;;;;;;;22.90;29.44;98411.34;5027987;28;20067;-52
2021/09/04 09:15:37;;;;;;;0.70;0.70;;;;;;;24.61;26.73;98389.03;5029038;28;20576;-55
2021/09/04 09:18:14;;;;;;;1.50;0.73;;;;;;;25.52;26.16;98416.63;5028080;28;20091;-55
2021/09/04 09:20:42;;;;;;;0.75;0.73;;;;;;;26.74;25.73;98412.78;5028030;28;20069;-55
2021/09/04 09:23:19;;;;;;;3.83;1.98;;;;;;;27.89;24.13;98405.59;5027466;28;20045;-55
2021/09/04 09:25:47;;;;;;;0.85;0.80;;;;;;;28.34;23.84;98405.09;5021528;28;20044;-55
2021/09/04 09:28:14;;;;;;;1.60;0.93;;;;;;;27.76;23.60;98404.44;5025347;28;20068;-54
2021/09/04 09:30:41;;;;;;;0.95;0.90;;;;;;;27.29;24.24;98398.84;5024931;28;20051;-54
2021/09/04 09:33:11;;;;;;;2.58;0.75;;;;;;;26.97;24.38;98398.31;5028044;28;20405;-54
2021/09/04 09:35:43;;;;;;;0.85;0.60;;;;;;;27.47;23.88;98391.22;5028146;28;20041;-56
2021/09/04 09:38:10;;;;;;;2.25;1.15;;;;;;;28.58;23.48;98388.56;5018811;28;20388;-55
2021/09/04 09:40:37;;;;;;;1.95;0.60;;;;;;;29.38;21.96;98393.19;5024665;28;20580;-51
2021/09/04 09:43:18;;;;;;;0.65;0.52;;;;;;;28.04;23.83;98396.47;5020242;28;20049;-52
2021/09/04 09:45:48;;;;;;;0.50;0.40;;;;;;;25.97;26.66;98413.09;5026672;28;20043;-52
2021/09/04 09:48:17;;;;;;;3.88;0.88;;;;;;;23.97;31.37;98431.50;5025953;28;20156;-48
2021/09/04 09:50:43;;;;;;;;;;;;;;;22.29;35.30;98429.09;5027141;28;20040;-45
2021/09/04 09:53:08;;;;;;;0.82;0.60;;;;;;;20.90;38.77;98422.75;5024717;28;20024;-52
2021/09/04 09:55:34;;;;;;;4.28;0.90;;;;;;;21.46;38.66;98421.66;5021626;28;20069;-52
2021/09/04 09:58:00;;;;;;;1.00;0.82;;;;;;;23.21;35.59;98429.16;5024406;28;20086;-48
2021/09/04 10:00:27;;;;;;;2.50;0.82;;;;;;;24.89;31.76;98424.81;5009581;28;20040;-55
2021/09/04 10:03:03;;;;;;;0.73;0.73;;;;;;;25.92;28.65;98430.59;5023922;28;20037;-44
2021/09/04 10:05:29;;;;;;;0.77;0.77;;;;;;;26.67;28.54;98425.19;5028140;28;20132;-47
2021/09/04 10:07:57;;;;;;;4.22;1.85;;;;;;;27.77;27.70;98432.00;5029018;28;20033;-44
2021/09/04 10:10:26;;;;;;;4.90;1.40;;;;;;;29.05;26.70;98437.75;5028960;28;20041;-42
2021/09/04 10:12:52;;;;;;;3.10;2.90;;;;;;;27.95;26.18;98436.88;5007963;28;20052;-44
2021/09/04 10:15:22;;;;;;;0.80;0.80;;;;;;;26.09;27.47;98429.47;5022428;28;20042;-45
2021/09/04 10:17:50;;;;;;;2.13;0.65;;;;;;;25.04;28.13;98430.22;5028593;28;20521;-46
2021/09/04 10:20:16;;;;;;;0.90;0.70;;;;;;;23.88;30.06;98424.56;5012157;28;20037;-46
2021/09/04 10:22:43;;;;;;;0.70;0.60;;;;;;;24.35;30.96;98421.19;5011680;28;20045;-44
2021/09/04 10:25:14;;;;;;;1.43;0.50;;;;;;;23.62;30.28;98432.69;5026941;28;20037;-44
2021/09/04 10:27:42;;;;;;;2.45;0.60;;;;;;;22.22;32.41;98430.72;5029228;28;20041;-47
2021/09/04 10:30:23;;;;;;;1.75;0.60;;;;;;;21.24;35.32;98448.56;5029461;28;20100;-46
2021/09/04 10:33:18;;;;;;;1.73;0.60;;;;;;;20.64;37.10;98446.38;5061349;28;20045;-46
2021/09/04 10:35:47;;;;;;;3.08;1.63;;;;;;;21.56;35.95;98459.47;5028774;28;20053;-48
2021/09/04 10:38:19;;;;;;;;;;;;;;;23.78;32.59;98460.22;5028830;28;20052;-45
2021/09/04 10:40:45;;;;;;;0.80;0.50;;;;;;;25.25;30.12;98455.22;5028448;28;19917;-46
2021/09/04 10:43:12;;;;;;;1.13;0.60;;;;;;;24.41;30.93;98455.88;5029362;28;20041;-46
2021/09/04 10:45:38;;;;;;;1.48;0.50;;;;;;;23.36;31.65;98450.53;5028124;28;20033;-44
2021/09/04 10:48:18;;;;;;;0.57;0.50;;;;;;;22.32;32.13;98447.31;5028771;28;20086;-48
2021/09/04 10:51:02;;;;;;;0.77;0.77;;;;;;;22.09;32.05;98446.16;5028118;28;20045;-44
2021/09/04 10:53:42;;;;;;;0.80;0.80;;;;;;;22.64;31.80;98443.19;5028087;28;20049;-49
2021/09/04 10:56:25;;;;;;;0.98;0.52;;;;;;;21.92;32.02;98445.22;5028102;28;20037;-47
2021/09/04 10:58:52;;;;;;;1.10;0.60;;;;;;;20.55;33.61;98449.06;5028720;28;20140;-44
2021/09/04 11:01:24;;;;;;;0.85;0.50;;;;;;;19.26;36.69;98466.28;5032693;28;20041;-46
2021/09/04 11:03:53;;;;;;;1.95;0.70;;;;;;;18.06;41.85;98497.75;5030290;28;20439;-49
2021/09/04 11:06:19;;;;;;;2.60;0.60;;;;;;;17.44;44.47;98492.38;5033331;28;20413;-49
2021/09/04 11:08:48;;;;;;;1.83;0.63;;;;;;;16.90;46.96;98503.75;5037716;28;20045;-68
2021/09/04 11:11:15;;;;;;;4.20;0.73;;;;;;;16.41;48.72;98490.94;5030545;28;20525;-65
2021/09/04 11:13:47;;;;;;;0.75;0.50;;;;;;;16.14;50.26;98487.81;5036182;28;20041;-65
2021/09/04 11:16:44;;;;;;;0.90;0.60;;;;;;;17.90;47.33;98487.66;5032244;28;20041;-67
2021/09/04 11:19:26;;;;;;;0.93;0.63;;;;;;;19.53;43.22;98482.25;5031008;28;20475;-69
2021/09/04 11:22:06;;;;;;;1.35;0.93;;;;;;;21.27;40.71;98491.41;5031323;28;20046;-65
2021/09/04 11:24:37;;;;;;;0.98;0.80;;;;;;;22.38;38.71;98490.88;5025548;28;20134;-65
2021/09/04 11:27:16;;;;;;;0.75;0.70;;;;;;;22.97;36.38;98492.72;5013299;28;20034;-65
2021/09/04 11:29:44;;;;;;;1.75;0.70;;;;;;;23.03;36.17;98485.94;5058278;28;20176;-66
2021/09/04 11:32:11;;;;;;;1.35;0.60;;;;;;;23.18;36.09;98497.59;5031927;28;20044;-65
2021/09/04 11:34:46;;;;;;;0.90;0.60;;;;;;;22.58;37.46;98494.97;5032578;28;20037;-66
2021/09/04 11:37:32;;;;;;;1.48;0.60;;;;;;;21.33;37.85;98504.03;5032626;28;20421;-66
2021/09/04 11:40:16;;;;;;;2.13;1.13;;;;;;;20.66;40.09;98499.06;5023276;28;20057;-65